sensor_id;sensor_type;location;lat;lon;timestamp;P1;durP1;ratioP1;P2;durP2;ratioP2
3975;SDS011;2002;48.812;9.180;2023-02-08T00:01:09;4.17;;;3.60;;
3975;SDS011;2002;48.812;9.180;2023-02-08T00:03:35;4.70;;;3.77;;
3975;SDS011;2002;48.812;9.180;2023-02-08T00:06:01;4.30;;;3.80;;
3975;SDS011;2002;48.812;9.180;2023-02-08T00:08:28;4.07;;;3.67;;
3975;SDS011;2002;48.812;9.180;2023-02-08T00:10:54;4.37;;;3.97;;
3975;SDS011;2002;48.812;9.180;2023-02-08T00:13:19;4.90;;;4.37;;
3975;SDS011;2002;48.812;9.180;2023-02-08T00:15:45;4.10;;;3.80;;
3975;SDS011;2002;48.812;9.180;2023-02-08T00:18:11;4.80;;;4.40;;
3975;SDS011;2002;48.812;9.180;2023-02-08T00:20:37;4.50;;;3.97;;
3975;SDS011;2002;48.812;9.180;2023-02-08T00:23:04;4.70;;;4.30;;
3975;SDS011;2002;48.812;9.180;2023-02-08T00:25:30;5.10;;;4.60;;
3975;SDS011;2002;48.812;9.180;2023-02-08T00:27:55;4.73;;;4.33;;
3975;SDS011;2002;48.812;9.180;2023-02-08T00:30:21;4.83;;;4.43;;
3975;SDS011;2002;48.812;9.180;2023-02-08T00:32:47;4.27;;;3.87;;
3975;SDS011;2002;48.812;9.180;2023-02-08T00:35:12;4.23;;;3.90;;
3975;SDS011;2002;48.812;9.180;2023-02-08T00:37:38;4.33;;;3.93;;
3975;SDS011;2002;48.812;9.180;2023-02-08T00:40:03;4.80;;;4.20;;
3975;SDS011;2002;48.812;9.180;2023-02-08T00:42:30;4.50;;;4.10;;
3975;SDS011;2002;48.812;9.180;2023-02-08T00:44:55;4.80;;;4.40;;
3975;SDS011;2002;48.812;9.180;2023-02-08T00:47:21;4.13;;;3.83;;
3975;SDS011;2002;48.812;9.180;2023-02-08T00:49:47;4.10;;;3.70;;
3975;SDS011;2002;48.812;9.180;2023-02-08T00:52:13;4.23;;;3.77;;
3975;SDS011;2002;48.812;9.180;2023-02-08T00:54:38;4.20;;;3.80;;
3975;SDS011;2002;48.812;9.180;2023-02-08T00:57:05;5.83;;;3.43;;
3975;SDS011;2002;48.812;9.180;2023-02-08T00:59:31;5.10;;;4.63;;
3975;SDS011;2002;48.812;9.180;2023-02-08T01:01:57;4.57;;;4.17;;
3975;SDS011;2002;48.812;9.180;2023-02-08T01:04:22;3.90;;;3.60;;
3975;SDS011;2002;48.812;9.180;2023-02-08T01:06:48;4.37;;;4.07;;
3975;SDS011;2002;48.812;9.180;2023-02-08T01:09:13;4.90;;;4.40;;
3975;SDS011;2002;48.812;9.180;2023-02-08T01:11:39;4.87;;;4.30;;
3975;SDS011;2002;48.812;9.180;2023-02-08T01:14:04;4.50;;;4.10;;
3975;SDS011;2002;48.812;9.180;2023-02-08T01:16:31;4.90;;;4.20;;
3975;SDS011;2002;48.812;9.180;2023-02-08T01:18:58;5.27;;;4.80;;
3975;SDS011;2002;48.812;9.180;2023-02-08T01:21:26;3.63;;;3.33;;
3975;SDS011;2002;48.812;9.180;2023-02-08T01:23:54;4.13;;;3.83;;
3975;SDS011;2002;48.812;9.180;2023-02-08T01:26:20;4.20;;;3.70;;
3975;SDS011;2002;48.812;9.180;2023-02-08T01:28:47;4.10;;;3.80;;
3975;SDS011;2002;48.812;9.180;2023-02-08T01:31:18;4.50;;;4.10;;
3975;SDS011;2002;48.812;9.180;2023-02-08T01:33:45;4.20;;;3.90;;
3975;SDS011;2002;48.812;9.180;2023-02-08T01:36:11;5.17;;;4.67;;
3975;SDS011;2002;48.812;9.180;2023-02-08T01:38:37;4.13;;;3.83;;
3975;SDS011;2002;48.812;9.180;2023-02-08T01:41:04;4.47;;;4.10;;
3975;SDS011;2002;48.812;9.180;2023-02-08T01:43:31;4.67;;;4.23;;
3975;SDS011;2002;48.812;9.180;2023-02-08T01:45:59;3.93;;;3.60;;
3975;SDS011;2002;48.812;9.180;2023-02-08T01:48:27;5.37;;;4.70;;
3975;SDS011;2002;48.812;9.180;2023-02-08T01:50:55;4.27;;;3.87;;
3975;SDS011;2002;48.812;9.180;2023-02-08T01:53:24;4.53;;;4.13;;
3975;SDS011;2002;48.812;9.180;2023-02-08T01:55:53;4.30;;;3.90;;
3975;SDS011;2002;48.812;9.180;2023-02-08T01:58:21;6.00;;;5.00;;
3975;SDS011;2002;48.812;9.180;2023-02-08T02:00:49;4.80;;;4.30;;
3975;SDS011;2002;48.812;9.180;2023-02-08T02:03:15;4.90;;;4.43;;
3975;SDS011;2002;48.812;9.180;2023-02-08T02:05:45;4.30;;;3.90;;
3975;SDS011;2002;48.812;9.180;2023-02-08T02:08:13;4.63;;;4.10;;
3975;SDS011;2002;48.812;9.180;2023-02-08T02:10:40;4.50;;;3.50;;
3975;SDS011;2002;48.812;9.180;2023-02-08T02:13:08;5.10;;;4.57;;
3975;SDS011;2002;48.812;9.180;2023-02-08T02:15:36;4.43;;;4.03;;
3975;SDS011;2002;48.812;9.180;2023-02-08T02:18:02;4.23;;;3.90;;
3975;SDS011;2002;48.812;9.180;2023-02-08T02:23:20;4.20;;;3.80;;
3975;SDS011;2002;48.812;9.180;2023-02-08T02:26:11;5.20;;;4.67;;
3975;SDS011;2002;48.812;9.180;2023-02-08T02:29:05;4.60;;;4.20;;
3975;SDS011;2002;48.812;9.180;2023-02-08T02:34:36;4.67;;;4.27;;
3975;SDS011;2002;48.812;9.180;2023-02-08T02:43:05;5.30;;;4.80;;
3975;SDS011;2002;48.812;9.180;2023-02-08T02:46:03;4.23;;;3.90;;
3975;SDS011;2002;48.812;9.180;2023-02-08T02:48:40;5.20;;;4.70;;
3975;SDS011;2002;48.812;9.180;2023-02-08T02:51:14;4.30;;;4.00;;
3975;SDS011;2002;48.812;9.180;2023-02-08T02:54:18;4.43;;;4.03;;
3975;SDS011;2002;48.812;9.180;2023-02-08T02:56:49;4.27;;;3.97;;
3975;SDS011;2002;48.812;9.180;2023-02-08T02:59:17;5.50;;;4.50;;
3975;SDS011;2002;48.812;9.180;2023-02-08T03:01:45;4.80;;;4.40;;
3975;SDS011;2002;48.812;9.180;2023-02-08T03:17:41;5.20;;;4.70;;
3975;SDS011;2002;48.812;9.180;2023-02-08T03:20:37;5.23;;;4.40;;
3975;SDS011;2002;48.812;9.180;2023-02-08T03:35:14;4.90;;;4.50;;
3975;SDS011;2002;48.812;9.180;2023-02-08T03:37:46;5.00;;;4.60;;
3975;SDS011;2002;48.812;9.180;2023-02-08T03:40:41;5.63;;;5.13;;
3975;SDS011;2002;48.812;9.180;2023-02-08T03:43:10;5.50;;;5.00;;
3975;SDS011;2002;48.812;9.180;2023-02-08T03:45:45;7.23;;;6.00;;
3975;SDS011;2002;48.812;9.180;2023-02-08T03:48:15;5.20;;;4.43;;
3975;SDS011;2002;48.812;9.180;2023-02-08T03:50:43;4.50;;;4.10;;
3975;SDS011;2002;48.812;9.180;2023-02-08T03:53:12;5.57;;;4.97;;
3975;SDS011;2002;48.812;9.180;2023-02-08T03:55:44;6.50;;;5.20;;
3975;SDS011;2002;48.812;9.180;2023-02-08T04:00:47;4.97;;;4.57;;
3975;SDS011;2002;48.812;9.180;2023-02-08T04:03:23;5.23;;;4.73;;
3975;SDS011;2002;48.812;9.180;2023-02-08T04:05:52;5.10;;;4.60;;
3975;SDS011;2002;48.812;9.180;2023-02-08T04:08:18;6.07;;;5.07;;
3975;SDS011;2002;48.812;9.180;2023-02-08T04:10:45;4.57;;;4.17;;
3975;SDS011;2002;48.812;9.180;2023-02-08T04:13:11;5.40;;;4.90;;
3975;SDS011;2002;48.812;9.180;2023-02-08T04:15:36;5.53;;;5.03;;
3975;SDS011;2002;48.812;9.180;2023-02-08T04:18:02;5.43;;;4.93;;
3975;SDS011;2002;48.812;9.180;2023-02-08T04:20:28;5.43;;;4.93;;
3975;SDS011;2002;48.812;9.180;2023-02-08T04:22:53;5.93;;;5.43;;
3975;SDS011;2002;48.812;9.180;2023-02-08T04:25:19;6.17;;;5.63;;
3975;SDS011;2002;48.812;9.180;2023-02-08T04:27:45;5.60;;;5.00;;
3975;SDS011;2002;48.812;9.180;2023-02-08T04:30:11;5.00;;;4.40;;
3975;SDS011;2002;48.812;9.180;2023-02-08T04:32:37;4.80;;;4.27;;
3975;SDS011;2002;48.812;9.180;2023-02-08T04:35:03;5.47;;;4.97;;
3975;SDS011;2002;48.812;9.180;2023-02-08T04:37:29;4.87;;;4.47;;
3975;SDS011;2002;48.812;9.180;2023-02-08T04:39:55;5.33;;;4.83;;
3975;SDS011;2002;48.812;9.180;2023-02-08T04:42:20;5.00;;;4.50;;
3975;SDS011;2002;48.812;9.180;2023-02-08T04:44:46;5.87;;;5.27;;
3975;SDS011;2002;48.812;9.180;2023-02-08T04:47:12;5.67;;;4.80;;
3975;SDS011;2002;48.812;9.180;2023-02-08T04:49:37;5.20;;;4.60;;
3975;SDS011;2002;48.812;9.180;2023-02-08T04:52:03;4.93;;;4.53;;
3975;SDS011;2002;48.812;9.180;2023-02-08T04:54:28;6.20;;;5.63;;
3975;SDS011;2002;48.812;9.180;2023-02-08T04:56:54;5.50;;;5.00;;
3975;SDS011;2002;48.812;9.180;2023-02-08T04:59:20;5.80;;;4.93;;
3975;SDS011;2002;48.812;9.180;2023-02-08T05:01:45;5.67;;;5.07;;
3975;SDS011;2002;48.812;9.180;2023-02-08T05:04:11;5.70;;;5.20;;
3975;SDS011;2002;48.812;9.180;2023-02-08T05:06:36;4.57;;;4.17;;
3975;SDS011;2002;48.812;9.180;2023-02-08T05:09:02;5.80;;;5.33;;
3975;SDS011;2002;48.812;9.180;2023-02-08T05:11:30;6.00;;;5.00;;
3975;SDS011;2002;48.812;9.180;2023-02-08T05:13:56;6.00;;;5.40;;
3975;SDS011;2002;48.812;9.180;2023-02-08T05:16:21;5.90;;;5.30;;
3975;SDS011;2002;48.812;9.180;2023-02-08T05:18:47;7.50;;;5.50;;
3975;SDS011;2002;48.812;9.180;2023-02-08T05:21:12;5.20;;;4.70;;
3975;SDS011;2002;48.812;9.180;2023-02-08T05:23:38;5.60;;;5.10;;
3975;SDS011;2002;48.812;9.180;2023-02-08T05:26:07;5.53;;;4.87;;
3975;SDS011;2002;48.812;9.180;2023-02-08T05:28:34;5.40;;;4.90;;
3975;SDS011;2002;48.812;9.180;2023-02-08T05:31:19;5.40;;;4.87;;
3975;SDS011;2002;48.812;9.180;2023-02-08T05:33:47;4.90;;;4.50;;
3975;SDS011;2002;48.812;9.180;2023-02-08T05:36:13;5.80;;;4.53;;
3975;SDS011;2002;48.812;9.180;2023-02-08T05:38:39;5.60;;;5.20;;
3975;SDS011;2002;48.812;9.180;2023-02-08T05:41:04;5.70;;;5.07;;
3975;SDS011;2002;48.812;9.180;2023-02-08T05:43:30;5.13;;;4.70;;
3975;SDS011;2002;48.812;9.180;2023-02-08T05:45:56;4.97;;;4.47;;
3975;SDS011;2002;48.812;9.180;2023-02-08T05:48:21;4.73;;;4.33;;
3975;SDS011;2002;48.812;9.180;2023-02-08T05:50:47;5.20;;;4.77;;
3975;SDS011;2002;48.812;9.180;2023-02-08T05:53:12;4.93;;;4.43;;
3975;SDS011;2002;48.812;9.180;2023-02-08T05:55:38;5.20;;;4.67;;
3975;SDS011;2002;48.812;9.180;2023-02-08T05:58:03;7.37;;;4.80;;
3975;SDS011;2002;48.812;9.180;2023-02-08T06:00:29;5.60;;;5.10;;
3975;SDS011;2002;48.812;9.180;2023-02-08T06:02:56;5.50;;;5.00;;
3975;SDS011;2002;48.812;9.180;2023-02-08T06:05:22;5.10;;;4.60;;
3975;SDS011;2002;48.812;9.180;2023-02-08T06:07:47;5.10;;;4.70;;
3975;SDS011;2002;48.812;9.180;2023-02-08T06:10:13;5.77;;;5.27;;
3975;SDS011;2002;48.812;9.180;2023-02-08T06:12:39;5.50;;;4.97;;
3975;SDS011;2002;48.812;9.180;2023-02-08T06:15:04;5.80;;;5.30;;
3975;SDS011;2002;48.812;9.180;2023-02-08T06:17:30;5.70;;;5.20;;
3975;SDS011;2002;48.812;9.180;2023-02-08T06:19:55;5.80;;;5.20;;
3975;SDS011;2002;48.812;9.180;2023-02-08T06:22:21;5.17;;;4.70;;
3975;SDS011;2002;48.812;9.180;2023-02-08T06:24:46;4.90;;;4.50;;
3975;SDS011;2002;48.812;9.180;2023-02-08T06:27:13;5.30;;;4.80;;
3975;SDS011;2002;48.812;9.180;2023-02-08T06:29:38;5.20;;;4.70;;
3975;SDS011;2002;48.812;9.180;2023-02-08T06:32:04;5.93;;;5.33;;
3975;SDS011;2002;48.812;9.180;2023-02-08T06:34:29;5.50;;;5.00;;
3975;SDS011;2002;48.812;9.180;2023-02-08T06:36:56;5.03;;;4.53;;
3975;SDS011;2002;48.812;9.180;2023-02-08T06:39:23;4.87;;;4.40;;
3975;SDS011;2002;48.812;9.180;2023-02-08T06:41:49;5.47;;;4.97;;
3975;SDS011;2002;48.812;9.180;2023-02-08T06:44:15;5.70;;;4.83;;
3975;SDS011;2002;48.812;9.180;2023-02-08T06:46:40;6.00;;;5.50;;
3975;SDS011;2002;48.812;9.180;2023-02-08T06:49:06;5.50;;;5.07;;
3975;SDS011;2002;48.812;9.180;2023-02-08T06:51:31;5.27;;;4.77;;
3975;SDS011;2002;48.812;9.180;2023-02-08T06:53:57;5.97;;;5.37;;
3975;SDS011;2002;48.812;9.180;2023-02-08T06:56:22;5.30;;;4.80;;
3975;SDS011;2002;48.812;9.180;2023-02-08T06:58:48;5.75;;;5.25;;
3975;SDS011;2002;48.812;9.180;2023-02-08T07:01:13;5.13;;;4.63;;
3975;SDS011;2002;48.812;9.180;2023-02-08T07:03:40;5.70;;;5.10;;
3975;SDS011;2002;48.812;9.180;2023-02-08T07:06:10;6.10;;;5.60;;
3975;SDS011;2002;48.812;9.180;2023-02-08T07:08:37;5.07;;;4.53;;
3975;SDS011;2002;48.812;9.180;2023-02-08T07:11:07;6.20;;;5.30;;
3975;SDS011;2002;48.812;9.180;2023-02-08T07:13:33;6.37;;;5.73;;
3975;SDS011;2002;48.812;9.180;2023-02-08T07:15:59;5.83;;;5.30;;
3975;SDS011;2002;48.812;9.180;2023-02-08T07:18:25;5.90;;;5.30;;
3975;SDS011;2002;48.812;9.180;2023-02-08T07:20:51;6.33;;;5.70;;
3975;SDS011;2002;48.812;9.180;2023-02-08T07:23:16;5.40;;;4.90;;
3975;SDS011;2002;48.812;9.180;2023-02-08T07:25:42;6.07;;;5.47;;
3975;SDS011;2002;48.812;9.180;2023-02-08T07:28:07;5.70;;;5.20;;
3975;SDS011;2002;48.812;9.180;2023-02-08T07:30:33;5.80;;;5.30;;
3975;SDS011;2002;48.812;9.180;2023-02-08T07:32:58;5.40;;;4.90;;
3975;SDS011;2002;48.812;9.180;2023-02-08T07:35:24;5.70;;;5.10;;
3975;SDS011;2002;48.812;9.180;2023-02-08T07:37:50;5.07;;;4.53;;
3975;SDS011;2002;48.812;9.180;2023-02-08T07:40:15;5.70;;;5.20;;
3975;SDS011;2002;48.812;9.180;2023-02-08T07:42:41;5.47;;;4.80;;
3975;SDS011;2002;48.812;9.180;2023-02-08T07:45:06;5.83;;;5.33;;
3975;SDS011;2002;48.812;9.180;2023-02-08T07:47:32;5.30;;;4.87;;
3975;SDS011;2002;48.812;9.180;2023-02-08T07:49:58;7.10;;;5.50;;
3975;SDS011;2002;48.812;9.180;2023-02-08T07:52:23;6.07;;;5.57;;
3975;SDS011;2002;48.812;9.180;2023-02-08T07:54:49;5.73;;;5.13;;
3975;SDS011;2002;48.812;9.180;2023-02-08T07:57:14;5.50;;;5.00;;
3975;SDS011;2002;48.812;9.180;2023-02-08T07:59:45;5.87;;;5.37;;
3975;SDS011;2002;48.812;9.180;2023-02-08T08:02:12;5.43;;;4.90;;
3975;SDS011;2002;48.812;9.180;2023-02-08T08:04:39;5.33;;;4.90;;
3975;SDS011;2002;48.812;9.180;2023-02-08T08:07:05;6.77;;;5.03;;
3975;SDS011;2002;48.812;9.180;2023-02-08T08:09:30;6.77;;;5.43;;
3975;SDS011;2002;48.812;9.180;2023-02-08T08:11:56;6.47;;;5.77;;
3975;SDS011;2002;48.812;9.180;2023-02-08T08:14:21;5.40;;;4.93;;
3975;SDS011;2002;48.812;9.180;2023-02-08T08:16:47;5.80;;;5.17;;
3975;SDS011;2002;48.812;9.180;2023-02-08T08:19:12;6.67;;;5.90;;
3975;SDS011;2002;48.812;9.180;2023-02-08T08:21:38;8.00;;;5.53;;
3975;SDS011;2002;48.812;9.180;2023-02-08T08:24:04;5.60;;;5.17;;
3975;SDS011;2002;48.812;9.180;2023-02-08T08:26:29;5.53;;;4.57;;
3975;SDS011;2002;48.812;9.180;2023-02-08T08:28:55;5.83;;;5.33;;
3975;SDS011;2002;48.812;9.180;2023-02-08T08:31:21;6.43;;;5.50;;
3975;SDS011;2002;48.812;9.180;2023-02-08T08:33:46;5.57;;;5.13;;
3975;SDS011;2002;48.812;9.180;2023-02-08T08:36:12;7.63;;;4.90;;
3975;SDS011;2002;48.812;9.180;2023-02-08T08:38:37;8.70;;;5.73;;
3975;SDS011;2002;48.812;9.180;2023-02-08T08:41:08;6.17;;;5.67;;
3975;SDS011;2002;48.812;9.180;2023-02-08T08:43:41;5.50;;;4.93;;
3975;SDS011;2002;48.812;9.180;2023-02-08T08:46:08;6.83;;;5.70;;
3975;SDS011;2002;48.812;9.180;2023-02-08T08:48:34;6.13;;;5.63;;
3975;SDS011;2002;48.812;9.180;2023-02-08T08:51:01;7.80;;;6.57;;
3975;SDS011;2002;48.812;9.180;2023-02-08T08:53:27;6.07;;;5.47;;
3975;SDS011;2002;48.812;9.180;2023-02-08T08:55:52;6.40;;;5.90;;
3975;SDS011;2002;48.812;9.180;2023-02-08T08:58:18;7.00;;;5.90;;
3975;SDS011;2002;48.812;9.180;2023-02-08T09:00:43;7.17;;;6.37;;
3975;SDS011;2002;48.812;9.180;2023-02-08T09:03:09;6.07;;;5.27;;
3975;SDS011;2002;48.812;9.180;2023-02-08T09:05:35;6.20;;;5.60;;
3975;SDS011;2002;48.812;9.180;2023-02-08T09:08:00;6.47;;;5.40;;
3975;SDS011;2002;48.812;9.180;2023-02-08T09:10:27;7.90;;;5.37;;
3975;SDS011;2002;48.812;9.180;2023-02-08T09:12:53;6.20;;;5.20;;
3975;SDS011;2002;48.812;9.180;2023-02-08T09:15:19;5.17;;;4.67;;
3975;SDS011;2002;48.812;9.180;2023-02-08T09:17:45;5.90;;;5.30;;
3975;SDS011;2002;48.812;9.180;2023-02-08T09:20:10;5.77;;;5.23;;
3975;SDS011;2002;48.812;9.180;2023-02-08T09:22:36;6.37;;;5.70;;
3975;SDS011;2002;48.812;9.180;2023-02-08T09:25:02;5.40;;;4.90;;
3975;SDS011;2002;48.812;9.180;2023-02-08T09:27:28;6.27;;;5.67;;
3975;SDS011;2002;48.812;9.180;2023-02-08T09:29:54;5.90;;;5.30;;
3975;SDS011;2002;48.812;9.180;2023-02-08T09:32:19;6.40;;;5.23;;
3975;SDS011;2002;48.812;9.180;2023-02-08T09:34:46;6.40;;;4.90;;
3975;SDS011;2002;48.812;9.180;2023-02-08T09:37:12;6.40;;;5.63;;
3975;SDS011;2002;48.812;9.180;2023-02-08T09:39:41;6.20;;;5.60;;
3975;SDS011;2002;48.812;9.180;2023-02-08T09:42:13;5.60;;;5.10;;
3975;SDS011;2002;48.812;9.180;2023-02-08T09:44:51;5.70;;;4.77;;
3975;SDS011;2002;48.812;9.180;2023-02-08T09:47:27;6.80;;;6.20;;
3975;SDS011;2002;48.812;9.180;2023-02-08T09:50:12;6.03;;;5.43;;
3975;SDS011;2002;48.812;9.180;2023-02-08T09:53:21;5.93;;;5.23;;
3975;SDS011;2002;48.812;9.180;2023-02-08T09:55:55;7.47;;;4.90;;
3975;SDS011;2002;48.812;9.180;2023-02-08T09:58:36;6.13;;;5.20;;
3975;SDS011;2002;48.812;9.180;2023-02-08T10:01:06;6.20;;;5.40;;
3975;SDS011;2002;48.812;9.180;2023-02-08T10:03:40;5.63;;;5.13;;
3975;SDS011;2002;48.812;9.180;2023-02-08T10:06:09;8.63;;;5.57;;
3975;SDS011;2002;48.812;9.180;2023-02-08T10:08:41;5.43;;;4.90;;
3975;SDS011;2002;48.812;9.180;2023-02-08T10:13:56;8.50;;;5.93;;
3975;SDS011;2002;48.812;9.180;2023-02-08T10:30:09;6.13;;;5.30;;
3975;SDS011;2002;48.812;9.180;2023-02-08T10:35:32;6.40;;;5.20;;
3975;SDS011;2002;48.812;9.180;2023-02-08T10:38:17;6.80;;;5.57;;
3975;SDS011;2002;48.812;9.180;2023-02-08T10:40:55;5.37;;;4.87;;
3975;SDS011;2002;48.812;9.180;2023-02-08T10:46:06;5.80;;;5.23;;
3975;SDS011;2002;48.812;9.180;2023-02-08T10:48:53;5.10;;;4.60;;
3975;SDS011;2002;48.812;9.180;2023-02-08T10:51:36;5.80;;;5.17;;
3975;SDS011;2002;48.812;9.180;2023-02-08T10:54:02;6.07;;;5.47;;
3975;SDS011;2002;48.812;9.180;2023-02-08T10:56:33;6.33;;;5.73;;
3975;SDS011;2002;48.812;9.180;2023-02-08T10:59:20;6.93;;;5.63;;
3975;SDS011;2002;48.812;9.180;2023-02-08T11:01:52;8.73;;;5.30;;
3975;SDS011;2002;48.812;9.180;2023-02-08T11:04:18;6.00;;;5.47;;
3975;SDS011;2002;48.812;9.180;2023-02-08T11:06:45;6.30;;;5.20;;
3975;SDS011;2002;48.812;9.180;2023-02-08T11:09:22;5.63;;;5.07;;
3975;SDS011;2002;48.812;9.180;2023-02-08T11:11:48;6.73;;;5.63;;
3975;SDS011;2002;48.812;9.180;2023-02-08T11:14:18;6.40;;;5.60;;
3975;SDS011;2002;48.812;9.180;2023-02-08T11:16:51;6.00;;;4.77;;
3975;SDS011;2002;48.812;9.180;2023-02-08T11:19:37;7.10;;;5.60;;
3975;SDS011;2002;48.812;9.180;2023-02-08T11:22:12;5.53;;;5.00;;
3975;SDS011;2002;48.812;9.180;2023-02-08T11:24:39;8.03;;;5.63;;
3975;SDS011;2002;48.812;9.180;2023-02-08T11:32:46;5.20;;;4.40;;
3975;SDS011;2002;48.812;9.180;2023-02-08T11:37:46;4.60;;;3.97;;
3975;SDS011;2002;48.812;9.180;2023-02-08T11:40:36;6.70;;;5.10;;
3975;SDS011;2002;48.812;9.180;2023-02-08T11:43:08;7.40;;;5.47;;
3975;SDS011;2002;48.812;9.180;2023-02-08T11:45:51;8.07;;;4.70;;
3975;SDS011;2002;48.812;9.180;2023-02-08T11:48:20;5.30;;;4.90;;
3975;SDS011;2002;48.812;9.180;2023-02-08T11:50:59;6.97;;;4.80;;
3975;SDS011;2002;48.812;9.180;2023-02-08T11:53:33;5.67;;;4.70;;
3975;SDS011;2002;48.812;9.180;2023-02-08T11:56:05;6.00;;;4.53;;
3975;SDS011;2002;48.812;9.180;2023-02-08T11:58:39;6.60;;;4.10;;
3975;SDS011;2002;48.812;9.180;2023-02-08T12:01:18;5.90;;;5.03;;
3975;SDS011;2002;48.812;9.180;2023-02-08T12:03:45;4.60;;;4.20;;
3975;SDS011;2002;48.812;9.180;2023-02-08T12:20:39;6.53;;;4.67;;
3975;SDS011;2002;48.812;9.180;2023-02-08T12:26:12;4.90;;;4.30;;
3975;SDS011;2002;48.812;9.180;2023-02-08T12:31:59;6.50;;;4.37;;
3975;SDS011;2002;48.812;9.180;2023-02-08T12:37:23;5.17;;;4.67;;
3975;SDS011;2002;48.812;9.180;2023-02-08T12:46:22;5.60;;;4.03;;
3975;SDS011;2002;48.812;9.180;2023-02-08T12:52:02;4.83;;;4.43;;
3975;SDS011;2002;48.812;9.180;2023-02-08T12:54:41;3.90;;;3.50;;
3975;SDS011;2002;48.812;9.180;2023-02-08T12:57:13;5.40;;;4.90;;
3975;SDS011;2002;48.812;9.180;2023-02-08T13:02:24;4.80;;;4.27;;
3975;SDS011;2002;48.812;9.180;2023-02-08T13:04:51;5.80;;;4.70;;
3975;SDS011;2002;48.812;9.180;2023-02-08T13:07:32;6.67;;;3.73;;
3975;SDS011;2002;48.812;9.180;2023-02-08T13:10:14;4.87;;;4.27;;
3975;SDS011;2002;48.812;9.180;2023-02-08T13:12:55;4.30;;;3.70;;
3975;SDS011;2002;48.812;9.180;2023-02-08T13:15:29;6.40;;;4.63;;
3975;SDS011;2002;48.812;9.180;2023-02-08T13:18:10;5.30;;;4.00;;
3975;SDS011;2002;48.812;9.180;2023-02-08T13:20:40;5.33;;;3.90;;
3975;SDS011;2002;48.812;9.180;2023-02-08T13:26:01;4.40;;;3.97;;
3975;SDS011;2002;48.812;9.180;2023-02-08T13:28:32;4.80;;;4.30;;
3975;SDS011;2002;48.812;9.180;2023-02-08T13:31:02;4.40;;;3.93;;
3975;SDS011;2002;48.812;9.180;2023-02-08T13:36:38;4.80;;;4.40;;
3975;SDS011;2002;48.812;9.180;2023-02-08T13:39:14;5.13;;;4.07;;
3975;SDS011;2002;48.812;9.180;2023-02-08T13:42:04;5.30;;;4.30;;
3975;SDS011;2002;48.812;9.180;2023-02-08T13:44:35;4.87;;;4.27;;
3975;SDS011;2002;48.812;9.180;2023-02-08T13:47:03;4.57;;;4.00;;
3975;SDS011;2002;48.812;9.180;2023-02-08T13:49:40;4.23;;;3.83;;
3975;SDS011;2002;48.812;9.180;2023-02-08T13:55:37;4.73;;;4.23;;
3975;SDS011;2002;48.812;9.180;2023-02-08T13:57:56;4.37;;;3.97;;
3975;SDS011;2002;48.812;9.180;2023-02-08T14:00:23;5.57;;;3.80;;
3975;SDS011;2002;48.812;9.180;2023-02-08T14:03:02;4.00;;;3.43;;
3975;SDS011;2002;48.812;9.180;2023-02-08T14:05:55;4.67;;;4.03;;
3975;SDS011;2002;48.812;9.180;2023-02-08T14:08:38;6.23;;;4.00;;
3975;SDS011;2002;48.812;9.180;2023-02-08T14:17:22;4.23;;;3.83;;
3975;SDS011;2002;48.812;9.180;2023-02-08T14:19:43;5.23;;;4.43;;
3975;SDS011;2002;48.812;9.180;2023-02-08T14:22:14;4.57;;;4.10;;
3975;SDS011;2002;48.812;9.180;2023-02-08T14:24:43;4.53;;;4.13;;
3975;SDS011;2002;48.812;9.180;2023-02-08T14:27:40;4.33;;;3.93;;
3975;SDS011;2002;48.812;9.180;2023-02-08T14:32:43;4.47;;;4.03;;
3975;SDS011;2002;48.812;9.180;2023-02-08T14:37:40;5.87;;;3.93;;
3975;SDS011;2002;48.812;9.180;2023-02-08T14:45:26;3.97;;;3.60;;
3975;SDS011;2002;48.812;9.180;2023-02-08T14:47:52;4.87;;;4.27;;
3975;SDS011;2002;48.812;9.180;2023-02-08T14:50:23;5.07;;;4.03;;
3975;SDS011;2002;48.812;9.180;2023-02-08T14:52:59;4.63;;;4.13;;
3975;SDS011;2002;48.812;9.180;2023-02-08T14:55:36;3.80;;;3.50;;
3975;SDS011;2002;48.812;9.180;2023-02-08T14:58:10;4.80;;;3.60;;
3975;SDS011;2002;48.812;9.180;2023-02-08T15:00:39;4.27;;;3.87;;
3975;SDS011;2002;48.812;9.180;2023-02-08T15:03:11;5.00;;;3.87;;
3975;SDS011;2002;48.812;9.180;2023-02-08T15:05:43;4.77;;;4.00;;
3975;SDS011;2002;48.812;9.180;2023-02-08T15:08:24;4.43;;;4.03;;
3975;SDS011;2002;48.812;9.180;2023-02-08T15:10:51;6.70;;;3.90;;
3975;SDS011;2002;48.812;9.180;2023-02-08T15:13:18;3.50;;;3.20;;
3975;SDS011;2002;48.812;9.180;2023-02-08T15:15:49;4.03;;;3.63;;
3975;SDS011;2002;48.812;9.180;2023-02-08T15:18:19;3.93;;;3.57;;
3975;SDS011;2002;48.812;9.180;2023-02-08T15:21:00;4.83;;;3.73;;
3975;SDS011;2002;48.812;9.180;2023-02-08T15:23:31;3.47;;;3.17;;
3975;SDS011;2002;48.812;9.180;2023-02-08T15:26:02;4.73;;;3.70;;
3975;SDS011;2002;48.812;9.180;2023-02-08T15:28:30;4.40;;;3.93;;
3975;SDS011;2002;48.812;9.180;2023-02-08T15:31:08;4.30;;;3.37;;
3975;SDS011;2002;48.812;9.180;2023-02-08T15:33:39;4.33;;;3.90;;
3975;SDS011;2002;48.812;9.180;2023-02-08T15:36:20;4.07;;;3.43;;
3975;SDS011;2002;48.812;9.180;2023-02-08T15:38:52;4.60;;;3.33;;
3975;SDS011;2002;48.812;9.180;2023-02-08T15:41:29;4.60;;;3.73;;
3975;SDS011;2002;48.812;9.180;2023-02-08T15:46:49;4.00;;;3.60;;
3975;SDS011;2002;48.812;9.180;2023-02-08T15:49:17;4.27;;;3.97;;
3975;SDS011;2002;48.812;9.180;2023-02-08T15:51:48;3.80;;;3.50;;
3975;SDS011;2002;48.812;9.180;2023-02-08T15:54:17;3.80;;;3.47;;
3975;SDS011;2002;48.812;9.180;2023-02-08T15:56:48;4.00;;;3.10;;
3975;SDS011;2002;48.812;9.180;2023-02-08T15:59:19;5.90;;;3.57;;
3975;SDS011;2002;48.812;9.180;2023-02-08T16:01:54;3.90;;;3.50;;
3975;SDS011;2002;48.812;9.180;2023-02-08T16:04:22;4.50;;;3.20;;
3975;SDS011;2002;48.812;9.180;2023-02-08T16:06:50;4.80;;;3.60;;
3975;SDS011;2002;48.812;9.180;2023-02-08T16:09:20;4.20;;;3.60;;
3975;SDS011;2002;48.812;9.180;2023-02-08T16:11:57;4.43;;;3.40;;
3975;SDS011;2002;48.812;9.180;2023-02-08T16:14:24;3.30;;;3.00;;
3975;SDS011;2002;48.812;9.180;2023-02-08T16:16:53;4.00;;;3.53;;
3975;SDS011;2002;48.812;9.180;2023-02-08T16:19:27;4.07;;;3.67;;
3975;SDS011;2002;48.812;9.180;2023-02-08T16:21:55;4.90;;;3.43;;
3975;SDS011;2002;48.812;9.180;2023-02-08T16:24:40;4.50;;;3.63;;
3975;SDS011;2002;48.812;9.180;2023-02-08T16:27:14;4.73;;;3.43;;
3975;SDS011;2002;48.812;9.180;2023-02-08T16:29:51;3.30;;;3.00;;
3975;SDS011;2002;48.812;9.180;2023-02-08T16:32:30;3.50;;;3.20;;
3975;SDS011;2002;48.812;9.180;2023-02-08T16:34:58;3.50;;;3.20;;
3975;SDS011;2002;48.812;9.180;2023-02-08T16:37:34;3.87;;;3.57;;
3975;SDS011;2002;48.812;9.180;2023-02-08T16:40:01;5.00;;;3.67;;
3975;SDS011;2002;48.812;9.180;2023-02-08T16:43:07;3.90;;;3.50;;
3975;SDS011;2002;48.812;9.180;2023-02-08T16:45:45;5.27;;;3.70;;
3975;SDS011;2002;48.812;9.180;2023-02-08T16:48:31;4.17;;;3.77;;
3975;SDS011;2002;48.812;9.180;2023-02-08T16:51:00;3.67;;;3.30;;
3975;SDS011;2002;48.812;9.180;2023-02-08T16:53:31;3.53;;;3.23;;
3975;SDS011;2002;48.812;9.180;2023-02-08T16:55:57;4.70;;;3.47;;
3975;SDS011;2002;48.812;9.180;2023-02-08T16:58:24;3.73;;;3.40;;
3975;SDS011;2002;48.812;9.180;2023-02-08T17:00:50;3.37;;;3.07;;
3975;SDS011;2002;48.812;9.180;2023-02-08T17:03:16;4.10;;;3.60;;
3975;SDS011;2002;48.812;9.180;2023-02-08T17:05:42;3.30;;;3.00;;
3975;SDS011;2002;48.812;9.180;2023-02-08T17:08:15;3.30;;;2.97;;
3975;SDS011;2002;48.812;9.180;2023-02-08T17:10:43;2.83;;;2.53;;
3975;SDS011;2002;48.812;9.180;2023-02-08T17:13:09;3.43;;;3.13;;
3975;SDS011;2002;48.812;9.180;2023-02-08T17:15:36;3.40;;;3.10;;
3975;SDS011;2002;48.812;9.180;2023-02-08T17:18:02;4.10;;;3.50;;
3975;SDS011;2002;48.812;9.180;2023-02-08T17:20:29;3.87;;;3.20;;
3975;SDS011;2002;48.812;9.180;2023-02-08T17:22:58;3.30;;;3.00;;
3975;SDS011;2002;48.812;9.180;2023-02-08T17:25:25;4.50;;;4.10;;
3975;SDS011;2002;48.812;9.180;2023-02-08T17:27:59;3.70;;;3.40;;
3975;SDS011;2002;48.812;9.180;2023-02-08T17:33:00;4.33;;;3.40;;
3975;SDS011;2002;48.812;9.180;2023-02-08T17:35:28;3.90;;;3.20;;
3975;SDS011;2002;48.812;9.180;2023-02-08T17:37:55;3.73;;;3.40;;
3975;SDS011;2002;48.812;9.180;2023-02-08T17:40:22;3.83;;;3.10;;
3975;SDS011;2002;48.812;9.180;2023-02-08T17:42:55;3.47;;;3.17;;
3975;SDS011;2002;48.812;9.180;2023-02-08T17:45:21;3.50;;;3.20;;
3975;SDS011;2002;48.812;9.180;2023-02-08T17:47:47;3.27;;;2.97;;